createdAt,value
2018-03-22T17:56:07.670Z,91147.89
2018-03-22T17:56:58.023Z,91148.24
2018-03-22T17:57:47.192Z,91152.17
2018-03-22T17:58:36.248Z,91148.38
2018-03-22T17:59:25.390Z,91152.45
2018-03-22T18:00:14.468Z,91158.94
2018-03-22T18:01:03.557Z,91158.74
2018-03-22T18:01:52.661Z,91165.48
2018-03-22T18:02:41.740Z,91159.86
2018-03-22T18:03:30.869Z,91153.39
2018-03-22T18:04:19.928Z,91147.61
2018-03-22T18:05:08.992Z,91145.06
2018-03-22T18:05:58.102Z,91153.11
2018-03-22T18:06:47.162Z,91157.63
2018-03-22T18:07:36.595Z,91154.90
2018-03-22T18:08:25.657Z,91158.97
2018-03-22T18:09:14.785Z,91164.59
2018-03-22T18:10:03.943Z,91162.91
2018-03-22T18:10:53.049Z,91156.75
2018-03-22T18:11:42.180Z,91152.98
2018-03-22T18:12:31.790Z,91148.88
2018-03-22T18:13:20.958Z,91150.07
2018-03-22T18:14:10.341Z,91147.40
2018-03-22T18:14:59.751Z,91140.93
2018-03-22T18:15:48.932Z,91144.40
2018-03-22T18:16:38.382Z,91149.34
2018-03-22T18:17:27.765Z,91155.06
2018-03-22T18:18:17.373Z,91159.42
2018-03-22T18:19:06.485Z,91166.31
2018-03-22T18:19:55.631Z,91156.12
2018-03-22T18:20:44.705Z,91158.73
2018-03-22T18:21:33.758Z,91165.79
2018-03-22T18:22:22.901Z,91177.41
2018-03-22T18:23:12.001Z,91177.06
2018-03-22T18:24:01.241Z,91176.56
2018-03-22T18:24:50.356Z,91170.89
2018-03-22T18:25:39.418Z,91175.48
2018-03-22T18:26:28.494Z,91181.60
2018-03-22T18:27:17.567Z,91180.80
2018-03-22T18:28:06.675Z,91185.39
2018-03-22T18:28:55.746Z,91185.77
2018-03-22T18:29:44.819Z,91196.78
2018-03-22T18:30:33.872Z,91199.38
2018-03-22T18:31:22.922Z,91200.86
2018-03-22T18:32:11.997Z,91193.58
2018-03-22T18:33:01.127Z,91186.14
2018-03-22T18:33:50.649Z,91180.54
2018-03-22T18:34:39.767Z,91180.16
2018-03-22T18:35:28.949Z,91173.78
2018-03-22T18:36:17.922Z,91173.97
2018-03-22T18:37:07.142Z,91176.42
2018-03-22T18:37:56.271Z,91179.50
2018-03-22T18:38:45.353Z,91168.17
2018-03-22T18:39:34.415Z,91163.09
2018-03-22T18:40:23.575Z,91163.27
2018-03-22T18:41:12.651Z,91160.38
2018-03-22T18:42:01.761Z,91158.09
2018-03-22T18:42:50.981Z,91152.72
2018-03-22T18:43:40.069Z,91159.84
2018-03-22T18:44:29.134Z,91148.75
2018-03-22T18:45:18.198Z,91151.59
2018-03-22T18:46:07.288Z,91156.66
2018-03-22T18:46:56.390Z,91151.81
2018-03-22T18:47:45.486Z,91150.14
2018-03-22T18:48:34.844Z,91147.16
2018-03-22T18:49:23.967Z,91136.82
2018-03-22T18:50:13.118Z,91132.39
2018-03-22T18:51:02.220Z,91121.95
2018-03-22T18:51:51.327Z,91121.59
2018-03-22T18:52:40.388Z,91118.16
2018-03-22T18:53:29.445Z,91119.98
2018-03-22T18:54:18.497Z,91118.02
2018-03-22T18:55:07.565Z,91114.14
2018-03-22T18:55:56.628Z,91104.56
2018-03-22T18:56:46.041Z,91099.31
2018-03-22T18:57:35.154Z,91097.09
2018-03-22T18:58:24.205Z,91099.31
2018-03-22T18:59:13.306Z,91090.18
2018-03-22T19:00:02.367Z,91087.95
2018-03-22T19:00:51.457Z,91089.38
2018-03-22T19:01:40.940Z,91079.52
2018-03-22T19:02:30.037Z,91074.45
2018-03-22T19:03:19.157Z,91076.41
2018-03-22T19:04:08.323Z,91071.02
2018-03-22T19:04:57.393Z,91062.45
2018-03-22T19:05:46.449Z,91063.58
2018-03-22T19:06:35.534Z,91050.45
2018-03-22T19:07:24.585Z,91047.36
2018-03-22T19:08:13.644Z,91037.18
2018-03-22T19:09:02.706Z,91030.12
2018-03-22T19:09:51.823Z,91023.49
2018-03-22T19:10:40.878Z,91015.69
2018-03-22T19:11:29.976Z,91021.00
2018-03-22T19:12:19.009Z,91023.03
2018-03-22T19:13:08.093Z,91021.19
2018-03-22T19:13:57.159Z,91022.42
2018-03-22T19:14:46.241Z,91024.28
2018-03-22T19:15:35.615Z,91024.55
2018-03-22T19:16:24.673Z,91021.73
2018-03-22T19:17:13.730Z,91029.04
2018-03-22T19:18:02.791Z,91030.36
2018-03-22T19:18:51.916Z,91032.48
2018-03-22T19:19:40.978Z,91034.61
2018-03-22T19:20:30.034Z,91034.27
2018-03-22T19:21:19.148Z,91034.52
2018-03-22T19:22:08.356Z,91031.25
2018-03-22T19:22:57.443Z,91031.33
2018-03-22T19:23:46.526Z,91025.94
2018-03-22T19:24:35.610Z,91027.60
2018-03-22T19:25:24.678Z,91016.41
2018-03-22T19:26:13.775Z,91020.54
2018-03-22T19:27:02.879Z,91024.27
2018-03-22T19:27:51.992Z,91022.66
2018-03-22T19:28:41.051Z,91019.03
2018-03-22T19:29:30.114Z,91017.33
2018-03-22T19:30:20.112Z,91013.70
2018-03-22T19:31:09.183Z,91015.86
2018-03-22T19:31:58.255Z,91018.59
2018-03-22T19:32:47.313Z,91019.58
2018-03-22T19:33:36.418Z,91016.41
2018-03-22T19:34:25.491Z,91016.35
2018-03-22T19:35:14.555Z,91009.24
2018-03-22T19:36:03.642Z,91017.56
2018-03-22T19:36:52.716Z,91016.02
2018-03-22T19:37:41.778Z,91020.88
2018-03-22T19:38:30.837Z,91017.23
2018-03-22T19:39:20.118Z,91011.84
2018-03-22T19:40:09.176Z,91020.18
2018-03-22T19:40:58.237Z,91007.31
2018-03-22T19:41:47.318Z,91006.98
2018-03-22T19:42:36.401Z,91011.08
2018-03-22T19:43:25.565Z,91009.17
2018-03-22T19:44:14.632Z,91009.55
2018-03-22T19:45:03.729Z,91015.56
2018-03-22T19:45:52.784Z,91016.27
2018-03-22T19:46:41.871Z,91011.88
2018-03-22T19:47:31.004Z,91015.13
2018-03-22T19:48:20.072Z,91003.22
2018-03-22T19:49:09.163Z,91012.14
2018-03-22T19:49:58.230Z,91018.77
2018-03-22T19:50:47.281Z,91014.27
2018-03-22T19:51:36.350Z,91022.83
2018-03-22T19:52:25.415Z,91018.91
2018-03-22T19:53:14.526Z,91017.59
2018-03-22T19:54:03.986Z,91017.26
2018-03-22T19:54:54.245Z,91020.26
2018-03-22T19:55:43.317Z,91011.55
2018-03-22T19:56:32.383Z,91013.66
2018-03-22T19:57:21.529Z,91009.72
2018-03-22T19:58:10.579Z,91005.34
2018-03-22T19:59:00.038Z,91004.73
2018-03-22T19:59:49.120Z,91000.66
2018-03-22T20:00:38.186Z,91002.31
2018-03-22T20:01:27.250Z,91008.70
2018-03-22T20:02:16.318Z,91004.62
2018-03-22T20:03:05.495Z,91010.06
2018-03-22T20:03:54.546Z,91003.65
2018-03-22T20:04:43.611Z,91003.89
2018-03-22T20:05:32.689Z,91004.59
2018-03-22T20:06:21.811Z,91009.73
2018-03-22T20:07:11.134Z,91009.93
2018-03-22T20:08:14.067Z,91008.59
2018-03-22T20:09:03.355Z,91000.73
2018-03-22T20:09:52.516Z,90996.69
2018-03-22T20:10:41.573Z,90999.94
2018-03-22T20:11:30.644Z,90999.77
2018-03-22T20:12:19.707Z,90993.86
2018-03-22T20:13:08.771Z,90990.77
2018-03-22T20:13:57.886Z,90991.19
2018-03-22T20:14:46.981Z,90993.48
2018-03-22T20:15:36.040Z,90996.16
2018-03-22T20:16:25.094Z,90993.25
2018-03-22T20:17:14.318Z,90993.52
2018-03-22T20:18:03.411Z,90999.87
2018-03-22T20:18:52.506Z,90989.44
2018-03-22T20:19:41.564Z,90995.03
2018-03-22T20:20:30.629Z,90990.42
2018-03-22T20:21:19.685Z,90990.69
2018-03-22T20:22:08.740Z,90999.58
2018-03-22T20:22:58.779Z,90990.97
2018-03-22T20:23:47.840Z,90990.34
2018-03-22T20:24:36.890Z,90990.48
2018-03-22T20:25:25.951Z,90989.92
2018-03-22T20:26:15.018Z,90990.31
2018-03-22T20:27:04.082Z,90989.38
2018-03-22T20:27:53.144Z,90992.95
2018-03-22T20:28:43.064Z,90991.03
2018-03-22T20:29:32.403Z,90986.67
2018-03-22T20:30:21.458Z,90983.69
2018-03-22T20:31:10.557Z,90980.63
2018-03-22T20:31:59.619Z,90978.70
2018-03-22T20:32:48.725Z,90979.48
2018-03-22T20:33:37.810Z,90981.25
2018-03-22T20:34:26.912Z,90979.14
2018-03-22T20:35:15.944Z,90972.62
2018-03-22T20:36:05.121Z,90969.07
2018-03-22T20:36:54.183Z,90960.52
2018-03-22T20:37:43.232Z,90955.58
2018-03-22T20:38:32.408Z,90946.73
2018-03-22T20:39:21.480Z,90949.41
2018-03-22T20:40:10.574Z,90945.08
2018-03-22T20:40:59.648Z,90943.84
2018-03-22T20:41:48.731Z,90943.41
2018-03-22T20:42:37.798Z,90935.55
2018-03-22T20:43:26.860Z,90930.95
2018-03-22T20:44:15.955Z,90924.48
2018-03-22T20:45:05.001Z,90917.52
2018-03-22T20:45:54.093Z,90917.09
2018-03-22T20:46:43.151Z,90920.11
2018-03-22T20:47:32.283Z,90917.03
2018-03-22T20:48:21.341Z,90915.08
2018-03-22T20:49:10.406Z,90923.62
2018-03-22T20:49:59.510Z,90916.05
2018-03-22T20:50:48.557Z,90912.36
2018-03-22T20:51:37.658Z,90892.24
2018-03-22T20:52:26.731Z,90880.77
2018-03-22T20:53:15.789Z,90862.06
2018-03-22T20:54:04.887Z,90854.20
2018-03-22T20:54:53.953Z,90862.77
2018-03-22T20:55:43.108Z,90877.69
2018-03-22T20:56:32.171Z,90884.91
2018-03-22T20:57:21.233Z,90898.22
2018-03-22T20:58:10.293Z,90905.89
2018-03-22T20:58:59.349Z,90896.54
2018-03-22T20:59:48.477Z,90894.52
2018-03-22T21:00:37.538Z,90895.39
2018-03-22T21:01:26.615Z,90887.54
2018-03-22T21:02:15.695Z,90882.18
2018-03-22T21:03:04.774Z,90887.13
2018-03-22T21:03:53.972Z,90887.56
2018-03-22T21:04:43.382Z,90889.23
2018-03-22T21:05:32.439Z,90884.38
2018-03-22T21:06:21.512Z,90880.85
2018-03-22T21:07:10.561Z,90872.13
2018-03-22T21:07:59.622Z,90869.65
2018-03-22T21:08:48.714Z,90855.53
2018-03-22T21:09:37.813Z,90855.53
2018-03-22T21:10:26.859Z,90846.87
2018-03-22T21:11:15.912Z,90845.90
2018-03-22T21:12:04.978Z,90849.00
2018-03-22T21:12:54.031Z,90852.63
2018-03-22T21:13:43.084Z,90846.01
2018-03-22T21:14:32.129Z,90839.92
2018-03-22T21:15:21.405Z,90838.66
2018-03-22T21:16:10.461Z,90834.77
2018-03-22T21:16:59.522Z,90832.78
2018-03-22T21:17:48.591Z,90829.07
2018-03-22T21:18:37.642Z,90831.00
2018-03-22T21:19:26.698Z,90832.50
2018-03-22T21:20:15.807Z,90834.98
2018-03-22T21:21:04.870Z,90831.02
2018-03-22T21:21:53.976Z,90832.59
2018-03-22T21:22:43.026Z,90826.77
2018-03-22T21:23:32.091Z,90825.16
2018-03-22T21:24:21.146Z,90820.75
2018-03-22T21:25:10.204Z,90815.39
2018-03-22T21:25:59.273Z,90814.08
2018-03-22T21:26:48.367Z,90815.13
2018-03-22T21:27:37.513Z,90803.94
2018-03-22T21:28:26.560Z,90809.14
2018-03-22T21:29:15.652Z,90805.16
2018-03-22T21:30:04.762Z,90804.81
2018-03-22T21:30:53.822Z,90805.92
2018-03-22T21:31:42.869Z,90809.37
2018-03-22T21:32:31.923Z,90805.52
2018-03-22T21:33:21.099Z,90799.97
2018-03-22T21:34:10.168Z,90799.96
2018-03-22T21:34:59.216Z,90797.14
2018-03-22T21:35:48.272Z,90795.03
2018-03-22T21:36:37.365Z,90792.30
2018-03-22T21:37:26.420Z,90787.44
2018-03-22T21:38:15.464Z,90787.53
2018-03-22T21:39:04.648Z,90790.70
2018-03-22T21:39:53.704Z,90785.59
2018-03-22T21:40:42.750Z,90789.91
2018-03-22T21:41:31.809Z,90782.67
2018-03-22T21:42:20.864Z,90786.29
2018-03-22T21:43:09.921Z,90785.85
2018-03-22T21:44:10.883Z,90787.00
2018-03-22T21:44:59.973Z,90780.38
2018-03-22T21:45:49.083Z,90779.86
2018-03-22T21:46:38.162Z,90780.72
2018-03-22T21:47:32.236Z,90778.80
2018-03-22T21:48:21.304Z,90767.88
2018-03-22T21:49:10.391Z,90763.02
2018-03-22T21:49:59.541Z,90755.52
2018-03-22T21:50:49.439Z,90756.40
2018-03-22T21:51:38.598Z,90752.02
2018-03-22T21:52:39.501Z,90743.80
2018-03-22T21:53:28.564Z,90745.30
2018-03-22T21:54:17.612Z,90734.89
2018-03-22T21:55:06.719Z,90739.39
2018-03-22T21:55:55.777Z,90735.42
2018-03-22T21:56:44.838Z,90736.13
2018-03-22T21:57:33.897Z,90750.25
2018-03-22T21:58:22.945Z,90743.03
2018-03-22T21:59:12.005Z,90738.34
2018-03-22T22:00:01.090Z,90737.00
2018-03-22T22:00:50.244Z,90728.98
2018-03-22T22:01:39.326Z,90721.41
2018-03-22T22:02:28.385Z,90717.09
2018-03-22T22:03:17.449Z,90714.53
2018-03-22T22:04:06.509Z,90717.16
2018-03-22T22:04:55.593Z,90715.77
2018-03-22T22:05:44.658Z,90704.14
2018-03-22T22:06:33.864Z,90710.94
2018-03-22T22:07:22.945Z,90707.95
2018-03-22T22:08:12.001Z,90706.36
2018-03-22T22:09:01.065Z,90706.86
2018-03-22T22:09:50.112Z,90709.06
2018-03-22T22:10:39.210Z,90708.88
2018-03-22T22:11:28.282Z,90706.15
2018-03-22T22:12:17.333Z,90705.78
2018-03-22T22:13:06.372Z,90708.08
2018-03-22T22:13:55.427Z,90703.41
2018-03-22T22:14:44.472Z,90706.86
2018-03-22T22:15:33.642Z,90706.77
2018-03-22T22:16:22.689Z,90705.02
2018-03-22T22:17:11.748Z,90706.19
2018-03-22T22:18:00.805Z,90704.13
2018-03-22T22:18:49.860Z,90702.80
2018-03-22T22:19:38.910Z,90694.06
2018-03-22T22:20:27.966Z,90693.70
2018-03-22T22:21:17.053Z,90689.22
2018-03-22T22:22:06.097Z,90688.80
2018-03-22T22:22:55.142Z,90681.64
2018-03-22T22:23:44.184Z,90682.08
2018-03-22T22:24:33.232Z,90672.55
2018-03-22T22:25:22.280Z,90674.31
2018-03-22T22:26:12.163Z,90675.72
2018-03-22T22:27:01.287Z,90674.48
2018-03-22T22:27:50.321Z,90671.13
2018-03-22T22:28:39.369Z,90673.95
2018-03-22T22:29:28.410Z,90670.80
2018-03-22T22:30:17.478Z,90659.53
2018-03-22T22:31:06.527Z,90661.72
2018-03-22T22:31:55.582Z,90653.52
2018-03-22T22:32:44.821Z,90658.36
2018-03-22T22:33:33.879Z,90653.09
2018-03-22T22:34:22.924Z,90656.80
2018-03-22T22:35:11.969Z,90654.33
2018-03-22T22:36:01.036Z,90652.86
2018-03-22T22:36:50.097Z,90650.45
2018-03-22T22:37:39.142Z,90650.05
2018-03-22T22:38:28.346Z,90660.32
2018-03-22T22:39:17.420Z,90657.42
2018-03-22T22:40:06.470Z,90660.77
2018-03-22T22:40:55.513Z,90652.92
2018-03-22T22:41:44.561Z,90658.86
2018-03-22T22:42:33.616Z,90661.42
2018-03-22T22:43:22.671Z,90660.45
2018-03-22T22:44:11.773Z,90666.70
2018-03-22T22:45:00.827Z,90661.95
2018-03-22T22:45:49.878Z,90663.80
2018-03-22T22:46:38.930Z,90667.06
2018-03-22T22:47:27.988Z,90666.34
2018-03-22T22:48:17.044Z,90672.70
2018-03-22T22:49:06.101Z,90672.17
2018-03-22T22:49:55.194Z,90680.45
2018-03-22T22:50:44.252Z,90683.62
2018-03-22T22:51:33.490Z,90690.67
2018-03-22T22:52:22.540Z,90691.91
2018-03-22T22:53:11.590Z,90698.08
2018-03-22T22:54:00.636Z,90706.44
2018-03-22T22:54:49.687Z,90704.15
2018-03-22T22:55:38.924Z,90705.64
2018-03-22T22:56:27.971Z,90694.81
2018-03-22T22:57:17.023Z,90703.44
2018-03-22T22:58:06.075Z,90706.16
2018-03-22T22:58:55.136Z,90704.13
2018-03-22T22:59:44.181Z,90705.81
2018-03-22T23:00:33.230Z,90701.41
2018-03-22T23:01:22.444Z,90706.59
2018-03-22T23:02:11.488Z,90707.73
2018-03-22T23:03:00.651Z,90722.18
2018-03-22T23:03:49.705Z,90729.50
2018-03-22T23:04:38.749Z,90727.75
2018-03-22T23:05:27.824Z,90721.41
2018-03-22T23:06:16.982Z,90712.05
2018-03-22T23:07:06.055Z,90710.29
2018-03-22T23:07:55.100Z,90711.77
2018-03-22T23:08:44.165Z,90712.64
2018-03-22T23:09:33.229Z,90724.78
2018-03-22T23:10:22.376Z,90737.83
2018-03-22T23:11:11.422Z,90732.87
2018-03-22T23:12:00.472Z,90730.05
2018-03-22T23:12:49.516Z,90728.84
2018-03-22T23:13:38.561Z,90724.44
2018-03-22T23:14:27.613Z,90724.23
2018-03-22T23:15:16.663Z,90729.77
2018-03-22T23:16:05.778Z,90725.98
2018-03-22T23:16:54.826Z,90726.37
2018-03-22T23:17:43.872Z,90719.97
2018-03-22T23:18:32.948Z,90711.09
2018-03-22T23:19:21.995Z,90708.54
2018-03-22T23:20:11.085Z,90693.22
2018-03-22T23:21:00.139Z,90694.71
2018-03-22T23:21:49.186Z,90697.16
2018-03-22T23:22:38.234Z,90693.73
2018-03-22T23:23:27.290Z,90693.02
2018-03-22T23:24:16.342Z,90696.22
2018-03-22T23:25:05.512Z,90695.88
2018-03-22T23:25:54.589Z,90692.27
2018-03-22T23:26:43.638Z,90690.33
2018-03-22T23:27:32.678Z,90690.77
2018-03-22T23:28:21.882Z,90695.70
2018-03-22T23:29:10.918Z,90694.20
2018-03-22T23:29:59.968Z,90695.26
2018-03-22T23:30:49.104Z,90695.96
2018-03-22T23:31:38.148Z,90687.91
2018-03-22T23:32:27.200Z,90688.88
2018-03-22T23:33:16.268Z,90693.10
2018-03-22T23:34:05.379Z,90695.92
2018-03-22T23:34:54.627Z,90705.79
2018-03-22T23:35:43.699Z,90707.02
2018-03-22T23:36:32.781Z,90706.48
2018-03-22T23:37:21.838Z,90708.25
2018-03-22T23:38:10.891Z,90708.23
2018-03-22T23:39:00.035Z,90709.20
2018-03-22T23:39:49.096Z,90710.17
2018-03-22T23:40:38.140Z,90702.24
2018-03-22T23:41:27.190Z,90689.45
2018-03-22T23:42:16.250Z,90677.37
2018-03-22T23:43:05.532Z,90655.39
2018-03-22T23:43:54.578Z,90639.41
2018-03-22T23:44:43.702Z,90640.05
2018-03-22T23:45:32.752Z,90645.27
2018-03-22T23:46:21.793Z,90643.95
2018-03-22T23:47:10.876Z,90654.19
2018-03-22T23:47:59.923Z,90649.77
2018-03-22T23:48:48.961Z,90654.27
2018-03-22T23:49:38.041Z,90649.77
2018-03-22T23:50:27.120Z,90650.55
2018-03-22T23:51:16.161Z,90658.48
2018-03-22T23:52:05.197Z,90660.70
2018-03-22T23:52:54.285Z,90653.75
2018-03-22T23:53:43.342Z,90657.64
2018-03-22T23:54:32.400Z,90658.06
2018-03-22T23:55:21.433Z,90658.24
2018-03-22T23:56:10.484Z,90658.07
2018-03-22T23:56:59.519Z,90653.33
2018-03-22T23:57:48.550Z,90653.14
2018-03-22T23:58:37.767Z,90647.64
2018-03-22T23:59:26.818Z,90630.43
